Kezdőlap
METAR-TAF:

METAR-TAF

Repülőterek :

Newport, Vermont, Amerikai Egyesült Államok

földrajzi szélesség: 44-53-20N, földrajzi hosszúság: 072-13-45W, magasság: 283 m

Jelenlegi meteorológiai megfigyelések

A jelentés 7 perccel ezelõtt készült, 07:55 UTC
Déli szél 4 kt
Hőmérséklet 15°C
Páratartalom 100%
Légköri nyomás 1021 hPa
Látótávolság: 16.1 km
Szórványos felhőzet 5500 lábon

METAR: KEFK 260755Z AUTO 17004KT 10SM SCT055 15/15 A3016 RMK AO2 T01460146

Idő: 04:02 (08:02 UTC)


TAF: hiányzik

Meteorológiai megfigyelések és előrejelzések több, mint 4000 repülőtéren (METAR és TAF jelentéseket).

A térképen piros és sárga pontok jelzik az elérhető meteorológiai állomásokat.

Mozgassa az egeret a pont fölött, hogy megjelenjen az állomás neve.

Azután kattintson az időjárási megfigyelések és előrejelzések megtekintéséhez.

A térkép megváltoztatása: kattintson a fekete keresztel jelölt zöld gombra ráközelítéshez, a vonallal jelölt zöld gombra távolításhoz, vagy a zöld nyilakra a szomszédos térképek eléréséhez.


METAR-TAF: